Time;durP1;ratioP1;P1;durP2;ratioP2;P2;SDS_P1;SDS_P2;PMS_P1;PMS_P2;Temp;Humidity;BMP_temperature;BMP_pressure;BME280_temperature;BME280_humidity;BME280_pressure;Samples;Min_cycle;Max_cycle;Signal;HPM_P1;HPM_P2
2022/06/13 00:01:12;;;;;;;4.00;3.28;;;563.70;2355.20;;;;;;5070157;28;20536;-54
2022/06/13 00:03:39;;;;;;;6.13;3.10;;;563.70;2380.80;;;;;;5069821;28;20037;-56
2022/06/13 00:06:06;;;;;;;4.10;2.70;;;563.70;2380.80;;;;;;5069904;28;20085;-59
2022/06/13 00:08:31;;;;;;;3.85;2.97;;;563.60;2355.20;;;;;;5070015;28;20031;-54
2022/06/13 00:10:57;;;;;;;3.85;3.10;;;563.60;2355.20;;;;;;5070081;28;20379;-56
2022/06/13 00:13:23;;;;;;;4.90;3.40;;;563.60;2355.20;;;;;;5072426;28;20027;-54
2022/06/13 00:15:49;;;;;;;7.68;2.80;;;563.60;2329.60;;;;;;5074305;28;20524;-59
2022/06/13 00:18:14;;;;;;;4.40;3.28;;;563.60;2329.60;;;;;;5073764;28;20059;-54
2022/06/13 00:20:40;;;;;;;4.20;2.83;;;563.60;2355.20;;;;;;5073989;28;20021;-58
2022/06/13 00:23:06;;;;;;;5.43;3.30;;;563.60;2355.20;;;;;;5073656;28;20468;-60
2022/06/13 00:25:32;;;;;;;3.95;2.75;;;563.60;2355.20;;;;;;5073885;28;20075;-60
2022/06/13 00:27:58;;;;;;;3.53;2.70;;;563.60;2355.20;;;;;;5073782;28;20044;-53
2022/06/13 00:30:24;;;;;;;3.30;2.67;;;563.60;2304.00;;;;;;5073452;28;20106;-54
2022/06/13 00:32:50;;;;;;;5.95;2.85;;;563.60;2304.00;;;;;;5073835;28;20048;-55
2022/06/13 00:35:17;;;;;;;6.13;3.10;;;563.60;2329.60;;;;;;5073247;28;20031;-59
2022/06/13 00:37:43;;;;;;;3.85;3.08;;;563.60;2329.60;;;;;;5073557;28;20013;-57
2022/06/13 00:40:10;;;;;;;3.75;3.05;;;563.60;2329.60;;;;;;5073542;28;20024;-55
2022/06/13 00:42:37;;;;;;;4.85;3.03;;;563.60;2304.00;;;;;;5073426;28;20020;-60
2022/06/13 00:45:08;;;;;;;5.97;3.53;;;563.60;2304.00;;;;;;5073278;28;20109;-55
2022/06/13 00:47:34;;;;;;;5.60;3.00;;;563.50;2329.60;;;;;;5073575;28;20021;-55
2022/06/13 00:50:04;;;;;;;4.07;2.88;;;563.50;2329.60;;;;;;5073186;28;20040;-61
2022/06/13 00:52:42;;;;;;;5.35;3.10;;;563.50;2329.60;;;;;;5073198;28;20023;-60
2022/06/13 00:55:13;;;;;;;5.88;3.08;;;563.40;2329.60;;;;;;5073090;28;20107;-55
2022/06/13 00:57:39;;;;;;;4.88;3.47;;;563.30;2329.60;;;;;;5073046;28;20055;-56
2022/06/13 01:00:09;;;;;;;3.95;2.78;;;563.40;2304.00;;;;;;5072989;28;20063;-60
2022/06/13 01:02:39;;;;;;;6.13;3.03;;;563.30;2304.00;;;;;;5072982;28;20119;-55
2022/06/13 01:05:05;;;;;;;5.72;2.88;;;563.30;2329.60;;;;;;5072926;28;20064;-55
2022/06/13 01:07:32;;;;;;;4.40;3.20;;;563.20;2355.20;;;;;;5073040;28;20537;-61
2022/06/13 01:12:42;;;;;;;6.18;3.13;;;538.50;2355.20;;;;;;5073288;28;20036;-59
2022/06/13 01:15:20;;;;;;;6.78;3.75;;;538.40;2380.80;;;;;;5073132;28;20024;-56
2022/06/13 01:18:14;;;;;;;6.10;3.35;;;538.40;2380.80;;;;;;5072609;28;20028;-58
2022/06/13 01:20:59;;;;;;;6.15;2.90;;;538.30;2406.40;;;;;;5072758;28;20029;-55
2022/06/13 01:23:58;;;;;;;3.92;2.88;;;538.30;2406.40;;;;;;5071960;28;20020;-55
2022/06/13 01:26:45;;;;;;;4.30;3.03;;;538.20;2406.40;;;;;;5072577;28;20111;-56
2022/06/13 01:29:38;;;;;;;5.57;3.15;;;538.20;2406.40;;;;;;5072487;28;20020;-61
2022/06/13 01:32:03;;;;;;;4.43;3.00;;;538.20;2406.40;;;;;;5072590;28;20036;-55
2022/06/13 01:34:29;;;;;;;7.03;3.20;;;538.20;2406.40;;;;;;5072799;28;20025;-60
2022/06/13 01:37:14;;;;;;;4.40;2.95;;;538.10;2406.40;;;;;;5072266;28;20062;-60
2022/06/13 01:39:45;;;;;;;3.30;2.58;;;538.10;2406.40;;;;;;5072511;28;20025;-55
2022/06/13 01:42:23;;;;;;;3.92;2.80;;;;;;;;;;5072665;28;20463;-60
2022/06/13 01:45:13;;;;;;;6.20;2.90;;;;;;;;;;5072143;28;20394;-61
2022/06/13 01:47:59;;;;;;;4.55;3.10;;;;;;;;;;4971394;28;20058;-55
2022/06/13 01:50:25;;;;;;;4.50;3.35;;;;;;;;;;4951724;29;20406;-60
2022/06/13 01:53:38;;;;;;;6.20;2.95;;;538.00;2406.40;;;;;;4951977;29;20027;-60
2022/06/13 01:56:11;;;;;;;4.15;3.03;;;537.90;2406.40;;;;;;4895019;29;20036;-60
2022/06/13 01:58:45;;;;;;;4.82;3.00;;;537.80;2406.40;;;;;;4894719;29;20052;-60
2022/06/13 02:01:25;;;;;;;3.72;2.67;;;537.80;2406.40;;;;;;4894976;29;20146;-61
2022/06/13 02:03:59;;;;;;;4.13;2.95;;;537.70;2406.40;;;;;;4894920;29;20492;-60
2022/06/13 02:06:27;;;;;;;;;;;537.60;2406.40;;;;;;4895028;29;20040;-61
2022/06/13 02:08:59;;;;;;;4.22;3.03;;;512.90;2380.80;;;;;;4894939;29;20488;-60
2022/06/13 02:11:46;;;;;;;3.85;2.80;;;512.90;2380.80;;;;;;4894609;29;20112;-60
2022/06/13 02:14:32;;;;;;;4.88;3.50;;;512.90;2380.80;;;;;;4894772;29;20041;-58
2022/06/13 02:17:04;;;;;;;4.40;3.28;;;512.80;2380.80;;;;;;4894690;29;20103;-60
2022/06/13 02:19:35;;;;;;;6.20;3.40;;;512.80;2380.80;;;;;;4894515;29;20037;-61
2022/06/13 02:22:10;;;;;;;7.68;3.28;;;512.60;2380.80;;;;;;4894404;29;20101;-60
2022/06/13 02:24:42;;;;;;;4.90;3.28;;;512.60;2380.80;;;;;;4912803;29;20055;-55
2022/06/13 02:27:12;;;;;;;4.70;3.30;;;512.60;2380.80;;;;;;4945738;28;20046;-61
2022/06/13 02:29:59;;;;;;;6.53;3.65;;;512.60;2380.80;;;;;;4970930;28;20090;-61
2022/06/13 02:32:43;;;;;;;5.20;2.75;;;512.50;2380.80;;;;;;5031539;28;20033;-62
2022/06/13 02:35:23;;;;;;;5.85;2.92;;;512.60;2380.80;;;;;;5071348;28;20024;-61
2022/06/13 02:38:15;;;;;;;5.85;4.38;;;512.60;2380.80;;;;;;5071403;28;20028;-61
2022/06/13 02:40:48;;;;;;;4.60;3.58;;;512.60;2380.80;;;;;;5070628;28;20040;-61
2022/06/13 02:43:43;;;;;;;5.03;3.33;;;512.50;2380.80;;;;;;5071189;28;20479;-62
2022/06/13 02:46:19;;;;;;;4.70;2.78;;;512.50;2380.80;;;;;;4970280;28;20490;-60
2022/06/13 02:48:56;;;;;;;6.30;3.40;;;512.50;2380.80;;;;;;4970172;28;20036;-61
2022/06/13 02:51:40;;;;;;;4.38;2.70;;;512.60;2380.80;;;;;;4970136;28;20043;-57
2022/06/13 02:54:12;;;;;;;4.68;3.45;;;512.50;2380.80;;;;;;4970002;28;20397;-59
2022/06/13 02:59:43;;;;;;;5.53;3.72;;;512.60;2380.80;;;;;;4970004;28;20066;-55
2022/06/13 03:02:13;;;;;;;4.20;2.95;;;512.60;2380.80;;;;;;4970301;28;20043;-60
2022/06/13 03:04:47;;;;;;;3.83;2.90;;;512.60;2380.80;;;;;;4969999;28;20047;-55
2022/06/13 03:07:23;;;;;;;4.25;3.25;;;512.60;2380.80;;;;;;4969779;28;20054;-55
2022/06/13 03:09:59;;;;;;;5.78;3.60;;;512.60;2380.80;;;;;;4969990;28;20429;-58
2022/06/13 03:12:40;;;;;;;5.78;3.53;;;512.60;2380.80;;;;;;4969729;28;20023;-55
2022/06/13 03:15:51;;;;;;;5.05;3.20;;;512.60;2380.80;;;;;;4969815;28;20045;-56
2022/06/13 03:18:26;;;;;;;4.40;3.28;;;512.60;2380.80;;;;;;4931060;29;20059;-55
2022/06/13 03:21:14;;;;;;;6.20;3.20;;;512.70;2380.80;;;;;;4931326;29;20070;-59
2022/06/13 03:23:46;;;;;;;4.07;3.30;;;512.80;2380.80;;;;;;5008886;28;20059;-55
2022/06/13 03:26:23;;;;;;;4.35;3.10;;;512.80;2380.80;;;;;;5028423;28;20474;-59
2022/06/13 03:29:00;;;;;;;4.82;3.20;;;512.80;2380.80;;;;;;5028313;28;20500;-55
2022/06/13 03:31:40;;;;;;;5.10;3.25;;;512.90;2380.80;;;;;;5028005;28;20094;-55
2022/06/13 03:34:12;;;;;;;7.95;3.30;;;512.90;2380.80;;;;;;5028112;28;20401;-55
2022/06/13 03:36:42;;;;;;;6.50;3.45;;;512.90;2380.80;;;;;;5028274;28;20021;-60
2022/06/13 03:39:09;;;;;;;5.80;3.03;;;512.90;2380.80;;;;;;5028500;28;20035;-59
2022/06/13 03:41:38;;;;;;;4.50;3.25;;;512.90;2380.80;;;;;;5028044;28;20038;-54
2022/06/13 03:44:19;;;;;;;5.55;3.90;;;537.60;2406.40;;;;;;5028000;28;20032;-59
2022/06/13 03:46:52;;;;;;;6.13;4.25;;;537.60;2406.40;;;;;;5027416;28;20029;-55
2022/06/13 03:49:41;;;;;;;4.97;3.63;;;537.70;2406.40;;;;;;5028235;28;20033;-61
2022/06/13 03:52:11;;;;;;;6.63;4.45;;;537.70;2406.40;;;;;;5027901;28;20037;-57
2022/06/13 03:55:05;;;;;;;6.38;4.22;;;537.70;2406.40;;;;;;5053020;28;20024;-60
2022/06/13 03:57:39;;;;;;;5.90;3.65;;;537.70;2406.40;;;;;;5070123;28;20081;-60
2022/06/13 04:00:24;;;;;;;6.18;3.33;;;537.70;2406.40;;;;;;5069846;28;20132;-55
2022/06/13 04:02:52;;;;;;;4.97;3.08;;;537.70;2406.40;;;;;;5070016;28;20404;-61
2022/06/13 04:05:30;;;;;;;4.10;3.67;;;537.80;2406.40;;;;;;5069902;28;20044;-60
2022/06/13 04:07:57;;;;;;;6.38;4.38;;;537.90;2406.40;;;;;;5069742;28;20490;-60
2022/06/13 04:10:23;;;;;;;5.22;3.45;;;537.90;2406.40;;;;;;5069872;28;20025;-55
2022/06/13 04:13:35;;;;;;;5.40;3.75;;;538.00;2406.40;;;;;;5069891;28;20033;-55
2022/06/13 04:16:09;;;;;;;7.18;3.30;;;538.20;2406.40;;;;;;5060398;28;20475;-55
2022/06/13 04:18:59;;;;;;;5.07;4.20;;;538.20;2406.40;;;;;;5069726;28;20035;-60
2022/06/13 04:21:27;;;;;;;8.25;3.67;;;538.30;2406.40;;;;;;5069492;28;20029;-55
2022/06/13 04:24:11;;;;;;;5.00;2.65;;;538.40;2406.40;;;;;;5069224;28;20057;-54
2022/06/13 04:26:55;;;;;;;;;;;538.50;2406.40;;;;;;5070057;28;20032;-53
2022/06/13 04:29:25;;;;;;;6.50;4.10;;;538.50;2406.40;;;;;;5069710;28;19913;-55
2022/06/13 04:31:55;;;;;;;6.28;3.88;;;589.10;2432.00;;;;;;5069699;28;20035;-53
2022/06/13 04:34:27;;;;;;;6.22;5.63;;;716.80;1920.00;;;;;;5069502;28;20078;-59
2022/06/13 04:36:53;;;;;;;4.25;3.85;;;768.60;1612.80;;;;;;5069220;28;20024;-58
2022/06/13 04:39:24;;;;;;;7.00;5.15;;;819.60;1484.80;;;;;;5069636;28;20024;-55
2022/06/13 04:41:53;;;;;;;6.90;5.97;;;870.40;1382.40;;;;;;5069475;28;20052;-54
2022/06/13 04:44:23;;;;;;;5.07;4.45;;;896.00;1305.60;;;;;;5069501;28;20033;-55
2022/06/13 04:46:50;;;;;;;6.25;5.03;;;922.00;1254.40;;;;;;5069730;28;20119;-61
2022/06/13 04:49:31;;;;;;;5.75;5.15;;;922.40;1203.20;;;;;;5069355;28;20025;-55
2022/06/13 04:51:59;;;;;;;5.28;4.78;;;947.70;1152.00;;;;;;5069305;28;20531;-52
2022/06/13 04:54:25;;;;;;;5.72;5.15;;;948.00;1126.40;;;;;;5069495;28;20059;-61
2022/06/13 04:56:53;;;;;;;5.95;5.45;;;972.90;1126.40;;;;;;5068994;28;20067;-60
2022/06/13 04:59:18;;;;;;;5.72;5.22;;;973.50;1100.80;;;;;;5069599;28;20507;-60
2022/06/13 05:01:48;;;;;;;5.15;4.65;;;998.80;1075.20;;;;;;5072636;28;20024;-53
2022/06/13 05:04:29;;;;;;;5.22;4.80;;;999.00;1075.20;;;;;;5072874;28;20029;-60
2022/06/13 05:07:09;;;;;;;4.47;4.07;;;1024.10;1049.60;;;;;;5073041;28;20032;-53
2022/06/13 05:09:39;;;;;;;5.57;5.18;;;1024.20;1049.60;;;;;;5073016;28;20029;-58
2022/06/13 05:12:25;;;;;;;8.52;5.60;;;1024.60;1024.00;;;;;;5072906;28;20117;-56
2022/06/13 05:15:10;;;;;;;6.13;5.53;;;1050.10;1024.00;;;;;;5072547;28;20028;-54
2022/06/13 05:17:51;;;;;;;5.85;5.25;;;1075.70;972.80;;;;;;5073116;28;20029;-54
2022/06/13 05:20:49;;;;;;;6.95;6.25;;;1075.50;972.80;;;;;;5072681;28;20108;-62
2022/06/13 05:23:39;;;;;;;6.53;6.03;;;1101.00;972.80;;;;;;4971680;28;20047;-59
2022/06/13 05:26:05;;;;;;;5.07;4.55;;;1101.00;972.80;;;;;;4971790;28;20118;-62
2022/06/13 05:28:33;;;;;;;8.95;5.50;;;1126.90;947.20;;;;;;4971813;28;20070;-61
2022/06/13 05:31:06;;;;;;;6.10;5.60;;;1127.00;947.20;;;;;;4972172;28;20502;-58
2022/06/13 05:33:42;;;;;;;6.97;6.47;;;1127.10;947.20;;;;;;4971924;28;20061;-57
2022/06/13 05:36:12;;;;;;;6.22;5.65;;;1127.30;921.60;;;;;;4971660;28;20052;-56
2022/06/13 05:38:52;;;;;;;6.38;5.85;;;1126.60;947.20;;;;;;4971710;28;20026;-61
2022/06/13 05:41:18;;;;;;;6.97;6.28;;;1127.10;921.60;;;;;;4971252;28;20042;-62
2022/06/13 05:43:44;;;;;;;6.53;6.03;;;1152.50;896.00;;;;;;4971365;28;20088;-58
2022/06/13 05:46:21;;;;;;;7.05;6.55;;;1152.70;870.40;;;;;;4971478;28;20043;-57
2022/06/13 05:48:50;;;;;;;7.43;6.35;;;1178.20;844.80;;;;;;4971315;28;20022;-58
2022/06/13 05:51:16;;;;;;;6.90;6.40;;;1178.50;844.80;;;;;;4971173;28;20027;-59
2022/06/13 05:53:41;;;;;;;7.90;7.30;;;1203.70;819.20;;;;;;4971315;28;20038;-60
2022/06/13 05:56:10;;;;;;;8.00;7.35;;;1203.60;844.80;;;;;;4971208;28;20481;-57
2022/06/13 05:58:37;;;;;;;8.00;7.30;;;1203.30;844.80;;;;;;4980348;28;20047;-56
2022/06/13 06:01:03;;;;;;;8.65;8.05;;;1203.70;844.80;;;;;;5072136;28;20112;-56
2022/06/13 06:03:29;;;;;;;8.52;7.88;;;1204.10;793.60;;;;;;5072105;28;20494;-61
2022/06/13 06:05:55;;;;;;;8.77;8.18;;;1229.20;793.60;;;;;;5071851;28;20116;-56
2022/06/13 06:08:24;;;;;;;8.50;8.00;;;1203.90;793.60;;;;;;5071929;28;20024;-61
2022/06/13 06:10:53;;;;;;;8.40;7.90;;;1228.90;819.20;;;;;;5071499;28;20108;-57
2022/06/13 06:13:19;;;;;;;8.77;8.13;;;1204.10;793.60;;;;;;5072047;28;20024;-60
2022/06/13 06:15:47;;;;;;;8.70;8.20;;;1228.90;793.60;;;;;;5071441;28;20075;-57
2022/06/13 06:18:13;;;;;;;9.23;8.63;;;1203.60;793.60;;;;;;5071602;28;20035;-59
2022/06/13 06:20:39;;;;;;;8.88;8.32;;;1204.10;793.60;;;;;;5071671;28;20379;-62
2022/06/13 06:23:06;;;;;;;8.30;7.82;;;1228.80;793.60;;;;;;5071631;28;20024;-59
2022/06/13 06:25:33;;;;;;;9.82;9.13;;;1229.50;768.00;;;;;;5071839;28;20036;-61
2022/06/13 06:27:59;;;;;;;10.45;9.80;;;1254.40;793.60;;;;;;5071583;28;20126;-61
2022/06/13 06:30:28;;;;;;;9.30;8.80;;;1254.40;793.60;;;;;;5071372;28;20103;-62
2022/06/13 06:32:55;;;;;;;10.23;9.50;;;1255.10;742.40;;;;;;5071205;28;20098;-57
2022/06/13 06:35:22;;;;;;;10.20;9.63;;;1280.00;742.40;;;;;;5071240;28;20127;-60
2022/06/13 06:37:49;;;;;;;14.95;9.80;;;1280.20;742.40;;;;;;5071253;28;20032;-60
2022/06/13 06:40:17;;;;;;;10.30;9.65;;;1280.00;716.80;;;;;;5071290;28;20020;-57
2022/06/13 06:42:43;;;;;;;10.05;9.30;;;1229.70;768.00;;;;;;5071183;28;20021;-57
2022/06/13 06:45:09;;;;;;;10.00;9.48;;;1229.20;793.60;;;;;;5070961;28;20029;-58
2022/06/13 06:47:36;;;;;;;9.75;9.15;;;1228.80;793.60;;;;;;5071046;28;20067;-62
2022/06/13 06:50:03;;;;;;;10.63;9.95;;;1229.20;768.00;;;;;;5071040;28;20032;-56
2022/06/13 06:52:30;;;;;;;10.40;9.80;;;1229.50;768.00;;;;;;5070850;28;20364;-57
2022/06/13 07:00:24;;;;;;;10.10;9.50;;;1254.60;768.00;;;;;;5070719;28;20151;-57
2022/06/13 07:02:50;;;;;;;10.65;9.85;;;1255.10;742.40;;;;;;5070749;28;20479;-57
2022/06/13 07:05:17;;;;;;;10.88;10.15;;;1255.30;742.40;;;;;;5070402;28;20032;-57
2022/06/13 07:07:43;;;;;;;10.80;10.20;;;1280.00;742.40;;;;;;5070266;28;20025;-58
2022/06/13 07:10:12;;;;;;;10.55;10.05;;;1280.70;716.80;;;;;;5070689;28;20526;-62
2022/06/13 07:12:38;;;;;;;11.75;11.13;;;1306.00;691.20;;;;;;5070239;28;20021;-57
2022/06/13 07:15:04;;;;;;;12.30;11.68;;;1280.70;716.80;;;;;;5070460;28;20082;-59
2022/06/13 07:17:30;;;;;;;11.02;10.43;;;1305.70;691.20;;;;;;5070528;28;20020;-57
2022/06/13 07:19:56;;;;;;;11.35;10.75;;;1305.70;665.60;;;;;;5070169;28;20540;-57
2022/06/13 07:22:24;;;;;;;12.07;11.18;;;1280.70;716.80;;;;;;5069829;28;20028;-59
2022/06/13 07:24:51;;;;;;;11.88;11.02;;;1280.90;691.20;;;;;;5070377;28;20119;-63
2022/06/13 07:27:17;;;;;;;11.52;10.82;;;1280.90;716.80;;;;;;5070058;28;20032;-63
2022/06/13 07:29:43;;;;;;;11.30;10.70;;;1280.00;742.40;;;;;;5070242;28;20043;-57
2022/06/13 07:32:21;;;;;;;11.55;10.63;;;1306.00;716.80;;;;;;5070377;28;20527;-57
2022/06/13 07:34:50;;;;;;;11.73;11.02;;;1306.00;716.80;;;;;;5070126;28;20035;-57
2022/06/13 07:40:06;;;;;;;11.35;10.70;;;1306.20;691.20;;;;;;5070599;28;20074;-57
2022/06/13 07:42:37;;;;;;;11.13;10.38;;;1306.20;691.20;;;;;;5070261;28;20039;-64
2022/06/13 07:45:04;;;;;;;12.30;11.57;;;1306.50;691.20;;;;;;5069899;28;20036;-58
2022/06/13 07:47:29;;;;;;;12.45;11.75;;;1331.70;691.20;;;;;;5068835;28;20548;-58
2022/06/13 07:49:55;;;;;;;11.18;10.52;;;1331.70;691.20;;;;;;5068204;28;20031;-61
2022/06/13 07:52:21;;;;;;;12.27;11.48;;;1331.40;691.20;;;;;;5068556;28;20035;-58
2022/06/13 07:54:46;;;;;;;11.98;11.25;;;1331.60;691.20;;;;;;5068366;28;20356;-58
2022/06/13 07:57:12;;;;;;;12.27;11.48;;;1331.60;691.20;;;;;;5068383;28;20017;-57
2022/06/13 07:59:40;;;;;;;12.63;11.93;;;1305.60;716.80;;;;;;5068206;28;20067;-61
2022/06/13 08:02:14;;;;;;;10.98;10.38;;;1255.30;742.40;;;;;;5067955;28;20024;-58
2022/06/13 08:04:40;;;;;;;11.82;11.13;;;1305.60;716.80;;;;;;5068400;28;20032;-63
2022/06/13 08:07:08;;;;;;;11.15;10.52;;;1254.90;768.00;;;;;;5067998;28;20086;-61
2022/06/13 08:09:34;;;;;;;11.55;10.85;;;1255.00;742.40;;;;;;5068110;28;20028;-56
2022/06/13 08:11:59;;;;;;;10.73;9.95;;;1254.50;768.00;;;;;;5068395;28;20157;-63
2022/06/13 08:14:25;;;;;;;9.68;9.00;;;1203.30;793.60;;;;;;5067576;28;20028;-65
2022/06/13 08:16:51;;;;;;;7.00;6.50;;;1101.30;870.40;;;;;;5068507;28;20074;-62
2022/06/13 08:19:17;;;;;;;6.13;5.25;;;1049.90;972.80;;;;;;5068267;28;20033;-59
2022/06/13 08:21:43;;;;;;;5.97;5.22;;;998.70;998.40;;;;;;5068248;28;20540;-62
2022/06/13 08:24:08;;;;;;;5.78;4.95;;;973.20;1049.60;;;;;;5069900;28;20028;-62
2022/06/13 08:26:34;;;;;;;6.00;5.40;;;947.80;1049.60;;;;;;5070033;28;20082;-56
2022/06/13 08:29:00;;;;;;;6.45;5.00;;;922.10;1075.20;;;;;;5069660;28;20111;-56
2022/06/13 08:31:26;;;;;;;4.90;4.40;;;922.00;1100.80;;;;;;5069725;28;20105;-56
2022/06/13 08:33:52;;;;;;;6.10;4.75;;;896.50;1100.80;;;;;;5071468;28;20066;-60
2022/06/13 08:36:19;;;;;;;5.38;4.63;;;896.10;1126.40;;;;;;5073339;28;20028;-62
2022/06/13 08:38:45;;;;;;;5.47;4.15;;;896.30;1126.40;;;;;;5073343;28;20101;-56
2022/06/13 08:41:11;;;;;;;4.60;4.18;;;871.10;1152.00;;;;;;5073563;28;20071;-56
2022/06/13 08:43:58;;;;;;;4.22;3.83;;;871.10;1203.20;;;;;;5073277;28;20490;-61
2022/06/13 08:46:58;;;;;;;5.75;4.15;;;870.90;1177.60;;;;;;5073415;28;20043;-56
2022/06/13 08:49:56;;;;;;;4.68;4.00;;;870.60;1228.80;;;;;;5073108;28;20021;-56
2022/06/13 08:52:29;;;;;;;4.88;4.45;;;870.50;1203.20;;;;;;5073253;28;20047;-56
2022/06/13 08:55:13;;;;;;;3.97;3.67;;;870.50;1203.20;;;;;;5072996;28;20029;-56
2022/06/13 08:57:44;;;;;;;4.22;3.83;;;870.50;1203.20;;;;;;5073297;28;20025;-56
2022/06/13 09:00:15;;;;;;;5.93;3.92;;;845.40;1203.20;;;;;;5073237;28;20102;-56
2022/06/13 09:02:50;;;;;;;4.38;3.97;;;845.20;1228.80;;;;;;5073084;28;20473;-56
2022/06/13 09:05:38;;;;;;;6.55;3.97;;;845.40;1228.80;;;;;;5072698;28;20472;-56
2022/06/13 09:08:10;;;;;;;5.65;4.07;;;845.10;1280.00;;;;;;5072731;28;20024;-56
2022/06/13 09:10:57;;;;;;;8.02;4.50;;;845.00;1280.00;;;;;;5072877;28;20078;-56
2022/06/13 09:13:25;;;;;;;5.03;4.00;;;845.00;1280.00;;;;;;5072820;28;20032;-61
2022/06/13 09:16:24;;;;;;;5.80;4.20;;;845.20;1280.00;;;;;;5072870;28;20082;-63
2022/06/13 09:19:19;;;;;;;4.38;3.97;;;845.00;1280.00;;;;;;4971969;28;20134;-63
2022/06/13 09:21:53;;;;;;;5.72;4.43;;;845.00;1254.40;;;;;;4971634;28;20022;-56
2022/06/13 09:24:33;;;;;;;5.03;3.95;;;845.00;1280.00;;;;;;4971775;28;20406;-62
2022/06/13 09:27:07;;;;;;;4.63;4.03;;;820.10;1254.40;;;;;;4971675;28;20557;-61
2022/06/13 09:29:54;;;;;;;4.88;4.07;;;820.00;1280.00;;;;;;4971483;28;20114;-58
2022/06/13 09:32:23;;;;;;;4.20;3.80;;;844.90;1280.00;;;;;;4971762;28;20033;-62
2022/06/13 09:34:54;;;;;;;4.65;4.15;;;819.90;1228.80;;;;;;4971664;28;20031;-62
2022/06/13 09:37:48;;;;;;;4.60;4.10;;;794.30;1280.00;;;;;;4971649;28;20046;-62
2022/06/13 09:40:20;;;;;;;4.68;4.13;;;794.00;1305.60;;;;;;4971339;28;20385;-63
2022/06/13 09:42:46;;;;;;;4.30;3.90;;;819.40;1331.20;;;;;;4971345;28;20039;-60
2022/06/13 09:45:39;;;;;;;4.68;4.05;;;819.90;1305.60;;;;;;4970682;28;20139;-62
2022/06/13 09:48:07;;;;;;;4.20;3.45;;;819.80;1254.40;;;;;;4971264;28;20540;-62
2022/06/13 09:50:54;;;;;;;4.40;3.80;;;819.60;1254.40;;;;;;4971251;28;20027;-60
2022/06/13 09:53:38;;;;;;;4.32;3.80;;;819.20;1280.00;;;;;;4971438;28;20050;-62
2022/06/13 09:56:18;;;;;;;4.55;4.15;;;793.80;1305.60;;;;;;5038716;28;20060;-61
2022/06/13 09:58:50;;;;;;;6.05;3.92;;;819.20;1331.20;;;;;;5071617;28;20174;-61
2022/06/13 10:01:38;;;;;;;4.22;3.83;;;819.60;1356.80;;;;;;5072417;28;20383;-62
2022/06/13 10:04:11;;;;;;;4.38;3.97;;;819.60;1280.00;;;;;;5072061;28;20512;-61
2022/06/13 10:06:53;;;;;;;7.55;3.95;;;819.20;1305.60;;;;;;5071868;28;20036;-58
2022/06/13 10:09:50;;;;;;;5.43;3.92;;;819.80;1280.00;;;;;;5072193;28;20434;-62
2022/06/13 10:12:36;;;;;;;5.50;4.88;;;819.90;1305.60;;;;;;5054356;28;20031;-56
2022/06/13 10:15:12;;;;;;;5.80;4.32;;;819.90;1331.20;;;;;;5071982;28;20029;-60
2022/06/13 10:17:49;;;;;;;8.93;4.07;;;819.90;1356.80;;;;;;5071934;28;20031;-62
2022/06/13 10:20:21;;;;;;;5.18;3.40;;;820.10;1254.40;;;;;;5071675;28;20028;-60
2022/06/13 10:23:09;;;;;;;5.35;4.07;;;819.80;1280.00;;;;;;5071427;28;20494;-62
2022/06/13 10:26:04;;;;;;;4.38;3.70;;;819.50;1254.40;;;;;;5071806;28;20071;-63
2022/06/13 10:28:33;;;;;;;4.15;3.80;;;819.70;1305.60;;;;;;4970505;28;20043;-62
2022/06/13 10:31:04;;;;;;;5.75;3.70;;;819.50;1228.80;;;;;;4970689;28;20038;-62
2022/06/13 10:33:33;;;;;;;5.78;4.28;;;819.30;1254.40;;;;;;4970847;28;20035;-62
2022/06/13 10:36:20;;;;;;;4.72;3.63;;;819.30;1331.20;;;;;;4970737;28;20058;-62
2022/06/13 10:38:58;;;;;;;5.38;3.60;;;819.60;1280.00;;;;;;4970400;28;20038;-63
2022/06/13 10:41:26;;;;;;;4.30;3.90;;;819.60;1305.60;;;;;;4970284;28;20090;-61
2022/06/13 10:43:54;;;;;;;4.30;3.90;;;819.70;1305.60;;;;;;4970622;28;20417;-57
2022/06/13 10:46:21;;;;;;;4.78;3.78;;;819.60;1280.00;;;;;;4970460;28;20089;-62
2022/06/13 10:48:52;;;;;;;8.32;4.07;;;819.50;1305.60;;;;;;4970198;28;20486;-63
2022/06/13 10:51:18;;;;;;;4.07;3.67;;;794.50;1331.20;;;;;;4970528;28;20043;-62
2022/06/13 10:54:05;;;;;;;6.57;4.05;;;794.00;1280.00;;;;;;4970112;28;20507;-62
2022/06/13 10:56:40;;;;;;;6.55;4.00;;;794.20;1305.60;;;;;;4969543;28;20030;-62
2022/06/13 10:59:06;;;;;;;5.55;4.40;;;793.90;1331.20;;;;;;4969745;28;20046;-58
2022/06/13 11:01:32;;;;;;;4.90;4.15;;;794.10;1305.60;;;;;;4970226;28;20186;-64
2022/06/13 11:04:18;;;;;;;4.00;3.60;;;794.10;1305.60;;;;;;4982126;28;20071;-63
2022/06/13 11:06:50;;;;;;;4.30;3.83;;;768.90;1254.40;;;;;;5070548;28;20467;-55
2022/06/13 11:09:27;;;;;;;5.82;4.40;;;768.60;1305.60;;;;;;5070791;28;20070;-61
2022/06/13 11:12:00;;;;;;;5.43;3.97;;;768.90;1280.00;;;;;;5070702;28;20456;-56
2022/06/13 11:14:34;;;;;;;4.28;3.80;;;768.90;1305.60;;;;;;5070514;28;20031;-55
2022/06/13 11:23:01;;;;;;;5.32;4.25;;;793.70;1356.80;;;;;;5028379;28;20415;-55
2022/06/13 11:25:30;;;;;;;5.68;4.05;;;793.70;1382.40;;;;;;5027930;28;20048;-61
2022/06/13 11:28:15;;;;;;;5.95;4.43;;;793.70;1356.80;;;;;;5028183;28;20036;-62
2022/06/13 11:30:41;;;;;;;4.78;4.25;;;793.80;1331.20;;;;;;5028441;28;20484;-59
2022/06/13 11:33:09;;;;;;;4.72;4.22;;;793.80;1382.40;;;;;;5028329;28;20029;-62
2022/06/13 11:35:38;;;;;;;5.32;4.43;;;793.80;1382.40;;;;;;5028281;28;20053;-62
2022/06/13 11:38:16;;;;;;;4.35;3.83;;;793.90;1382.40;;;;;;5028122;28;20080;-62
2022/06/13 11:40:45;;;;;;;4.25;3.70;;;794.20;1331.20;;;;;;5028230;28;20033;-63
2022/06/13 11:43:19;;;;;;;5.18;4.30;;;794.20;1331.20;;;;;;5028236;28;20026;-62
2022/06/13 11:45:58;;;;;;;5.40;4.15;;;794.20;1356.80;;;;;;5027865;28;20069;-63
2022/06/13 11:48:26;;;;;;;5.53;3.70;;;794.20;1331.20;;;;;;5027968;28;20437;-62
2022/06/13 11:50:58;;;;;;;4.60;4.13;;;794.10;1177.60;;;;;;5049576;28;20036;-63
2022/06/13 11:53:36;;;;;;;5.78;3.65;;;793.80;1228.80;;;;;;5051671;28;20517;-55
2022/06/13 11:56:21;;;;;;;4.10;3.70;;;793.90;1254.40;;;;;;5070116;28;20145;-64
2022/06/13 11:58:48;;;;;;;6.82;4.43;;;794.10;1331.20;;;;;;5069607;28;20036;-63
2022/06/13 12:01:31;;;;;;;4.03;3.60;;;794.20;1280.00;;;;;;5069720;28;20437;-56
2022/06/13 12:04:17;;;;;;;5.65;3.97;;;794.00;1280.00;;;;;;5070033;28;20039;-55
2022/06/13 12:06:44;;;;;;;4.63;3.72;;;794.00;1331.20;;;;;;5070108;28;20384;-61
2022/06/13 12:09:32;;;;;;;4.57;4.00;;;794.10;1356.80;;;;;;5069716;28;20032;-56
2022/06/13 12:12:04;;;;;;;5.07;4.25;;;794.00;1331.20;;;;;;5069718;28;20067;-63
2022/06/13 12:14:38;;;;;;;5.33;3.90;;;793.70;1356.80;;;;;;5070267;28;20071;-55
2022/06/13 12:17:10;;;;;;;4.88;4.10;;;768.90;1305.60;;;;;;5069914;28;20024;-55
2022/06/13 12:20:06;;;;;;;4.10;3.70;;;793.70;1356.80;;;;;;5069888;28;20074;-62
2022/06/13 12:22:34;;;;;;;7.78;3.85;;;793.80;1356.80;;;;;;5069968;28;20032;-62
2022/06/13 12:25:19;;;;;;;6.95;3.67;;;793.80;1356.80;;;;;;5069823;28;20071;-63
2022/06/13 12:27:54;;;;;;;5.93;4.15;;;768.70;1356.80;;;;;;5069773;28;20037;-56
2022/06/13 12:30:19;;;;;;;4.53;3.70;;;768.60;1280.00;;;;;;5069864;28;20032;-55
2022/06/13 12:33:06;;;;;;;5.75;4.10;;;768.40;1305.60;;;;;;5069683;28;20029;-55
2022/06/13 12:35:52;;;;;;;4.35;3.95;;;768.90;1305.60;;;;;;5069716;28;20052;-55
2022/06/13 12:38:59;;;;;;;4.43;3.35;;;794.00;1356.80;;;;;;5069674;28;20082;-57
2022/06/13 12:41:36;;;;;;;5.78;3.92;;;794.50;1331.20;;;;;;4969050;28;20039;-56
2022/06/13 12:44:20;;;;;;;5.95;4.00;;;819.30;1305.60;;;;;;4969101;28;20109;-55
2022/06/13 12:47:17;;;;;;;3.97;3.58;;;819.20;1305.60;;;;;;4968752;28;20077;-55
2022/06/13 12:49:54;;;;;;;5.40;3.90;;;819.30;1356.80;;;;;;4968403;28;20022;-56
2022/06/13 12:52:22;;;;;;;4.03;3.58;;;819.30;1280.00;;;;;;4968749;28;20098;-56
2022/06/13 12:54:51;;;;;;;4.57;3.95;;;794.20;1280.00;;;;;;4968883;28;20491;-63
2022/06/13 12:57:34;;;;;;;4.00;3.60;;;794.10;1305.60;;;;;;4968479;28;20041;-57
2022/06/13 13:00:18;;;;;;;6.35;3.78;;;794.20;1356.80;;;;;;4968603;28;20114;-59
2022/06/13 13:03:02;;;;;;;5.13;3.30;;;794.50;1331.20;;;;;;4968608;28;20070;-56
2022/06/13 13:06:12;;;;;;;3.60;3.08;;;819.30;1331.20;;;;;;4968643;28;20042;-62
2022/06/13 13:08:56;;;;;;;4.20;3.67;;;794.40;1382.40;;;;;;4968657;28;20466;-56
2022/06/13 13:11:28;;;;;;;4.43;3.95;;;794.20;1356.80;;;;;;4968881;28;20046;-56
2022/06/13 13:13:56;;;;;;;4.95;4.15;;;794.40;1331.20;;;;;;4968506;28;20034;-55